createdAt,value
2022-11-18T00:00:30.673Z,940.59
2022-11-18T00:01:31.285Z,940.57
2022-11-18T00:02:31.056Z,940.63
2022-11-18T00:03:33.889Z,940.63
2022-11-18T00:04:30.485Z,940.71
2022-11-18T00:05:31.764Z,940.72
2022-11-18T00:06:30.461Z,940.72
2022-11-18T00:07:34.040Z,940.78
2022-11-18T00:08:30.505Z,940.79
2022-11-18T00:09:31.982Z,940.81
2022-11-18T00:10:30.382Z,940.78
2022-11-18T00:11:33.721Z,940.84
2022-11-18T00:12:30.446Z,940.90
2022-11-18T00:13:30.699Z,940.84
2022-11-18T00:14:30.445Z,940.86
2022-11-18T00:15:33.396Z,940.84
2022-11-18T00:16:30.379Z,940.84
2022-11-18T00:17:33.576Z,940.86
2022-11-18T00:18:30.330Z,940.91
2022-11-18T00:19:31.623Z,940.90
2022-11-18T00:20:30.350Z,940.85
2022-11-18T00:21:32.279Z,940.86
2022-11-18T00:22:30.309Z,940.82
2022-11-18T00:23:35.378Z,940.78
2022-11-18T00:24:30.258Z,940.89
2022-11-18T00:25:33.418Z,940.93
2022-11-18T00:26:30.260Z,940.94
2022-11-18T00:27:30.838Z,940.92
2022-11-18T00:28:30.151Z,940.98
2022-11-18T00:29:30.538Z,940.97
2022-11-18T00:30:30.117Z,941.00
2022-11-18T00:31:31.434Z,941.00
2022-11-18T00:32:30.296Z,941.00
2022-11-18T00:33:31.162Z,941.06
2022-11-18T00:34:30.199Z,941.08
2022-11-18T00:35:30.534Z,941.07
2022-11-18T00:36:30.112Z,941.07
2022-11-18T00:37:30.504Z,941.10
2022-11-18T00:38:30.099Z,941.10
2022-11-18T00:39:31.449Z,941.15
2022-11-18T00:40:29.980Z,941.16
2022-11-18T00:41:30.528Z,941.24
2022-11-18T00:42:29.952Z,941.24
2022-11-18T00:43:31.647Z,941.23
2022-11-18T00:44:29.975Z,941.32
2022-11-18T00:45:30.134Z,941.32
2022-11-18T00:46:30.661Z,941.37
2022-11-18T00:47:30.843Z,941.34
2022-11-18T00:48:29.860Z,941.28
2022-11-18T00:49:32.947Z,941.36
2022-11-18T00:50:29.890Z,941.33
2022-11-18T00:51:30.761Z,941.45
2022-11-18T00:52:29.899Z,941.32
2022-11-18T00:53:30.404Z,941.28
2022-11-18T00:54:29.792Z,941.25
2022-11-18T00:55:30.262Z,941.27
2022-11-18T00:56:29.821Z,941.24
2022-11-18T00:57:31.888Z,941.35
2022-11-18T00:58:29.736Z,941.33
2022-11-18T00:59:29.948Z,941.39
2022-11-18T01:00:29.696Z,941.38
2022-11-18T01:01:30.360Z,941.45
2022-11-18T01:02:30.910Z,941.50
2022-11-18T01:03:29.863Z,941.47
2022-11-18T01:04:29.909Z,941.46
2022-11-18T01:05:31.434Z,941.43
2022-11-18T01:06:29.802Z,941.48
2022-11-18T01:07:30.310Z,941.47
2022-11-18T01:08:29.677Z,941.52
2022-11-18T01:09:30.561Z,941.52
2022-11-18T01:10:29.666Z,941.51
2022-11-18T01:11:29.928Z,941.61
2022-11-18T01:12:29.542Z,941.53
2022-11-18T01:13:30.515Z,941.63
2022-11-18T01:14:29.701Z,941.63
2022-11-18T01:15:30.240Z,941.64
2022-11-18T01:16:29.599Z,941.67
2022-11-18T01:17:29.772Z,941.67
2022-11-18T01:18:29.595Z,941.64
2022-11-18T01:19:30.691Z,941.64
2022-11-18T01:20:29.507Z,941.61
2022-11-18T01:21:29.758Z,941.70
2022-11-18T01:22:29.402Z,941.68
2022-11-18T01:23:30.118Z,941.74
2022-11-18T01:24:29.360Z,941.77
2022-11-18T01:25:30.899Z,941.71
2022-11-18T01:26:30.325Z,941.68
2022-11-18T01:27:29.949Z,941.58
2022-11-18T01:28:29.319Z,941.46
2022-11-18T01:29:29.460Z,941.45
2022-11-18T01:30:29.303Z,941.52
2022-11-18T01:31:32.841Z,941.54
2022-11-18T01:32:29.335Z,941.57
2022-11-18T01:33:29.584Z,941.60
2022-11-18T01:34:29.231Z,941.55
2022-11-18T01:35:31.367Z,941.68
2022-11-18T01:36:29.941Z,941.70
2022-11-18T01:37:30.496Z,941.76
2022-11-18T01:38:29.199Z,941.79
2022-11-18T01:39:29.422Z,941.79
2022-11-18T01:40:29.135Z,941.82
2022-11-18T01:41:30.112Z,941.80
2022-11-18T01:42:29.120Z,941.89
2022-11-18T01:43:29.600Z,941.85
2022-11-18T01:44:29.114Z,941.87
2022-11-18T01:45:29.445Z,941.95
2022-11-18T01:46:29.073Z,941.92
2022-11-18T01:47:29.287Z,941.93
2022-11-18T01:48:29.018Z,941.93
2022-11-18T01:49:29.594Z,941.93
2022-11-18T01:50:29.207Z,941.98
2022-11-18T01:51:30.007Z,941.98
2022-11-18T01:52:28.972Z,941.97
2022-11-18T01:53:34.732Z,941.98
2022-11-18T01:54:28.943Z,941.93
2022-11-18T01:55:32.099Z,941.93
2022-11-18T01:56:28.956Z,941.90
2022-11-18T01:57:31.856Z,941.89
2022-11-18T01:58:28.899Z,941.93
2022-11-18T01:59:29.328Z,941.93
2022-11-18T02:00:28.971Z,941.89
2022-11-18T02:01:29.458Z,941.92
2022-11-18T02:02:28.846Z,941.99
2022-11-18T02:03:30.321Z,942.02
2022-11-18T02:04:28.794Z,941.97
2022-11-18T02:05:30.918Z,942.03
2022-11-18T02:06:28.766Z,942.03
2022-11-18T02:07:29.961Z,942.05
2022-11-18T02:08:28.774Z,942.11
2022-11-18T02:09:29.554Z,942.09
2022-11-18T02:10:28.720Z,942.14
2022-11-18T02:11:29.599Z,942.09
2022-11-18T02:12:28.672Z,942.09
2022-11-18T02:13:30.213Z,942.12
2022-11-18T02:14:28.706Z,942.07
2022-11-18T02:15:29.158Z,942.11
2022-11-18T02:16:28.616Z,942.16
2022-11-18T02:17:28.964Z,942.13
2022-11-18T02:18:28.598Z,942.15
2022-11-18T02:19:29.910Z,942.24
2022-11-18T02:20:28.887Z,942.20
2022-11-18T02:21:31.128Z,942.22
2022-11-18T02:22:28.586Z,942.24
2022-11-18T02:23:29.405Z,942.27
2022-11-18T02:24:28.525Z,942.29
2022-11-18T02:25:30.394Z,942.24
2022-11-18T02:26:28.526Z,942.29
2022-11-18T02:27:28.890Z,942.28
2022-11-18T02:28:28.481Z,942.28
2022-11-18T02:29:28.918Z,942.29
2022-11-18T02:30:28.451Z,942.26
2022-11-18T02:31:29.241Z,942.25
2022-11-18T02:32:28.459Z,942.21
2022-11-18T02:33:32.275Z,942.23
2022-11-18T02:34:28.374Z,942.23
2022-11-18T02:35:30.313Z,942.23
2022-11-18T02:36:28.337Z,942.28
2022-11-18T02:37:29.717Z,942.31
2022-11-18T02:38:28.448Z,942.37
2022-11-18T02:39:29.630Z,942.34
2022-11-18T02:40:28.284Z,942.37
2022-11-18T02:41:29.463Z,942.39
2022-11-18T02:42:28.274Z,942.38
2022-11-18T02:43:31.191Z,942.30
2022-11-18T02:44:28.304Z,942.31
2022-11-18T02:45:29.971Z,942.31
2022-11-18T02:46:28.227Z,942.33
2022-11-18T02:47:29.185Z,942.39
2022-11-18T02:48:28.182Z,942.38
2022-11-18T02:49:30.757Z,942.35
2022-11-18T02:50:28.181Z,942.38
2022-11-18T02:51:28.987Z,942.33
2022-11-18T02:52:28.140Z,942.37
2022-11-18T02:53:29.924Z,942.33
2022-11-18T02:54:28.124Z,942.40
2022-11-18T02:55:31.268Z,942.37
2022-11-18T02:56:28.105Z,942.38
2022-11-18T02:57:29.334Z,942.35
2022-11-18T02:58:28.040Z,942.31
2022-11-18T02:59:29.464Z,942.32
2022-11-18T03:00:28.042Z,942.34
2022-11-18T03:01:30.727Z,942.31
2022-11-18T03:02:28.001Z,942.26
2022-11-18T03:03:30.385Z,942.22
2022-11-18T03:04:28.291Z,942.19
2022-11-18T03:05:31.956Z,942.20
2022-11-18T03:06:27.948Z,942.21
2022-11-18T03:07:29.388Z,942.19
2022-11-18T03:08:28.457Z,942.20
2022-11-18T03:09:30.248Z,942.16
2022-11-18T03:10:28.829Z,942.19
2022-11-18T03:11:29.758Z,942.22
2022-11-18T03:12:27.906Z,942.23
2022-11-18T03:13:31.380Z,942.29
2022-11-18T03:14:27.840Z,942.23
2022-11-18T03:15:29.779Z,942.21
2022-11-18T03:16:27.814Z,942.27
2022-11-18T03:17:29.777Z,942.26
2022-11-18T03:18:27.856Z,942.26
2022-11-18T03:19:29.928Z,942.26
2022-11-18T03:20:27.805Z,942.30
2022-11-18T03:21:29.624Z,942.34
2022-11-18T03:22:27.848Z,942.39
2022-11-18T03:23:31.575Z,942.35
2022-11-18T03:24:27.663Z,942.36
2022-11-18T03:25:30.346Z,942.37
2022-11-18T03:26:27.814Z,942.38
2022-11-18T03:27:31.090Z,942.50
2022-11-18T03:28:28.364Z,942.43
2022-11-18T03:29:32.869Z,942.51
2022-11-18T03:30:28.341Z,942.55
2022-11-18T03:31:31.822Z,942.58
2022-11-18T03:32:27.593Z,942.59
2022-11-18T03:33:34.492Z,942.60
2022-11-18T03:34:28.116Z,942.58
2022-11-18T03:35:29.436Z,942.63
2022-11-18T03:36:27.547Z,942.60
2022-11-18T03:37:29.356Z,942.65
2022-11-18T03:38:28.504Z,942.62
2022-11-18T03:39:29.667Z,942.67
2022-11-18T03:40:27.460Z,942.70
2022-11-18T03:41:33.637Z,942.68
2022-11-18T03:42:28.402Z,942.71
2022-11-18T03:43:31.711Z,942.71
2022-11-18T03:44:27.483Z,942.71
2022-11-18T03:45:30.120Z,942.75
2022-11-18T03:46:28.023Z,942.70
2022-11-18T03:47:30.947Z,942.72
2022-11-18T03:48:27.339Z,942.75
2022-11-18T03:49:29.352Z,942.76
2022-11-18T03:50:28.439Z,942.77
2022-11-18T03:51:28.886Z,942.78
2022-11-18T03:52:27.313Z,942.74
2022-11-18T03:53:28.823Z,942.83
2022-11-18T03:54:27.255Z,942.86
2022-11-18T03:55:28.898Z,942.79
2022-11-18T03:56:27.543Z,942.87
2022-11-18T03:57:28.688Z,942.87
2022-11-18T03:58:27.199Z,942.96
2022-11-18T03:59:27.531Z,942.94
2022-11-18T04:00:27.195Z,942.96
2022-11-18T04:01:27.983Z,942.97
2022-11-18T04:02:27.239Z,942.97
2022-11-18T04:03:27.485Z,942.95
2022-11-18T04:04:28.132Z,942.98
2022-11-18T04:05:29.416Z,942.99
2022-11-18T04:06:27.844Z,943.04
2022-11-18T04:07:27.855Z,943.00
2022-11-18T04:08:27.156Z,943.01
2022-11-18T04:09:27.921Z,943.02
2022-11-18T04:10:27.063Z,943.05
2022-11-18T04:11:27.429Z,943.07
2022-11-18T04:12:27.022Z,943.08
2022-11-18T04:13:29.074Z,943.16
2022-11-18T04:14:27.046Z,943.18
2022-11-18T04:15:28.832Z,943.18
2022-11-18T04:16:26.974Z,943.17
2022-11-18T04:17:27.994Z,943.23
2022-11-18T04:18:26.940Z,943.20
2022-11-18T04:19:28.326Z,943.19
2022-11-18T04:20:27.049Z,943.18
2022-11-18T04:21:27.957Z,943.17
2022-11-18T04:22:26.878Z,943.22
2022-11-18T04:23:28.902Z,943.24
2022-11-18T04:24:27.837Z,943.20
2022-11-18T04:25:27.594Z,943.25
2022-11-18T04:26:27.810Z,943.31
2022-11-18T04:27:28.443Z,943.27
2022-11-18T04:28:26.820Z,943.29
2022-11-18T04:29:28.430Z,943.30
2022-11-18T04:30:26.827Z,943.38
2022-11-18T04:31:29.921Z,943.35
2022-11-18T04:32:26.959Z,943.36
2022-11-18T04:33:27.038Z,943.38
2022-11-18T04:34:26.710Z,943.34
2022-11-18T04:35:30.922Z,943.29
2022-11-18T04:36:26.681Z,943.33
2022-11-18T04:37:27.370Z,943.33
2022-11-18T04:38:26.688Z,943.30
2022-11-18T04:39:27.451Z,943.24
2022-11-18T04:40:26.673Z,943.24
2022-11-18T04:41:26.793Z,943.23
2022-11-18T04:42:26.604Z,943.24
2022-11-18T04:43:27.550Z,943.28
2022-11-18T04:44:26.653Z,943.36
2022-11-18T04:45:28.783Z,943.33
2022-11-18T04:46:26.545Z,943.38
2022-11-18T04:47:29.934Z,943.28
2022-11-18T04:48:26.603Z,943.33
2022-11-18T04:49:26.916Z,943.28
2022-11-18T04:50:26.546Z,943.26
2022-11-18T04:51:28.526Z,943.30
2022-11-18T04:52:26.528Z,943.29
2022-11-18T04:53:28.285Z,943.26
2022-11-18T04:54:26.552Z,943.28
2022-11-18T04:55:30.049Z,943.23
2022-11-18T04:56:26.453Z,943.23
2022-11-18T04:57:27.650Z,943.29
2022-11-18T04:58:26.381Z,943.24
2022-11-18T04:59:28.210Z,943.22
2022-11-18T05:00:26.445Z,943.23
2022-11-18T05:01:26.824Z,943.28
2022-11-18T05:02:26.360Z,943.26
2022-11-18T05:03:28.573Z,943.29
2022-11-18T05:04:26.398Z,943.28
2022-11-18T05:05:27.265Z,943.32
2022-11-18T05:06:26.430Z,943.33
2022-11-18T05:07:27.772Z,943.33
2022-11-18T05:08:26.345Z,943.35
2022-11-18T05:09:31.767Z,943.32
2022-11-18T05:10:27.198Z,943.31
2022-11-18T05:11:26.968Z,943.31
2022-11-18T05:12:26.320Z,943.36
2022-11-18T05:13:26.527Z,943.30
2022-11-18T05:14:26.174Z,943.34
2022-11-18T05:15:26.463Z,943.39
2022-11-18T05:16:26.131Z,943.35
2022-11-18T05:17:26.555Z,943.41
2022-11-18T05:18:26.204Z,943.39
2022-11-18T05:19:27.605Z,943.42
2022-11-18T05:20:26.215Z,943.43
2022-11-18T05:21:26.134Z,943.47
2022-11-18T05:22:26.059Z,943.49
2022-11-18T05:23:28.743Z,943.45
2022-11-18T05:24:26.255Z,943.49
2022-11-18T05:25:26.632Z,943.52
2022-11-18T05:26:26.122Z,943.56
2022-11-18T05:27:26.403Z,943.57
2022-11-18T05:28:25.963Z,943.62
2022-11-18T05:29:26.456Z,943.64
2022-11-18T05:30:26.045Z,943.64
2022-11-18T05:31:26.641Z,943.72
2022-11-18T05:32:25.971Z,943.69
2022-11-18T05:33:28.443Z,943.69
2022-11-18T05:34:25.888Z,943.70
2022-11-18T05:35:29.589Z,943.67
2022-11-18T05:36:26.033Z,943.61
2022-11-18T05:37:26.768Z,943.61
2022-11-18T05:38:26.171Z,943.67
2022-11-18T05:39:26.678Z,943.63
2022-11-18T05:40:25.853Z,943.67
2022-11-18T05:41:26.908Z,943.74
2022-11-18T05:42:25.927Z,943.65
2022-11-18T05:43:26.567Z,943.69
2022-11-18T05:44:25.761Z,943.69
2022-11-18T05:45:29.068Z,943.72
2022-11-18T05:46:25.802Z,943.78
2022-11-18T05:47:26.009Z,943.76
2022-11-18T05:48:25.826Z,943.84
2022-11-18T05:49:26.598Z,943.87
2022-11-18T05:50:25.712Z,943.97
2022-11-18T05:51:28.401Z,944.06
2022-11-18T05:52:25.612Z,944.02
2022-11-18T05:53:28.143Z,944.27
2022-11-18T05:54:25.665Z,944.35
2022-11-18T05:55:25.997Z,944.39
2022-11-18T05:56:25.640Z,944.55
2022-11-18T05:57:25.703Z,944.45
2022-11-18T05:58:25.517Z,944.32
2022-11-18T05:59:26.293Z,944.51
2022-11-18T06:00:25.754Z,944.49
2022-11-18T06:01:27.016Z,944.53
2022-11-18T06:02:25.860Z,944.52
2022-11-18T06:03:30.724Z,944.52
2022-11-18T06:04:25.450Z,944.57
2022-11-18T06:05:25.504Z,944.54
2022-11-18T06:06:25.612Z,944.61
2022-11-18T06:07:26.520Z,944.47
2022-11-18T06:08:25.491Z,944.46
2022-11-18T06:09:26.970Z,944.46
2022-11-18T06:10:25.380Z,944.49
2022-11-18T06:11:27.791Z,944.51
2022-11-18T06:12:25.393Z,944.53
2022-11-18T06:13:29.747Z,944.50
2022-11-18T06:14:25.378Z,944.56
2022-11-18T06:15:26.207Z,944.58
2022-11-18T06:16:25.291Z,944.53
2022-11-18T06:17:28.502Z,944.58
2022-11-18T06:18:25.419Z,944.55
2022-11-18T06:19:28.274Z,944.64
2022-11-18T06:20:25.315Z,944.65
2022-11-18T06:21:27.362Z,944.62
2022-11-18T06:22:25.211Z,944.63
2022-11-18T06:23:26.247Z,944.61
2022-11-18T06:24:25.262Z,944.62
2022-11-18T06:25:26.186Z,944.63
2022-11-18T06:26:25.220Z,944.64
2022-11-18T06:27:26.635Z,944.65
2022-11-18T06:28:25.111Z,944.67
2022-11-18T06:29:27.965Z,944.70
2022-11-18T06:30:25.496Z,944.72
2022-11-18T06:31:25.595Z,944.67
2022-11-18T06:32:25.125Z,944.67
2022-11-18T06:33:25.142Z,944.66
2022-11-18T06:34:25.009Z,944.78
2022-11-18T06:35:29.295Z,944.76
2022-11-18T06:36:26.313Z,944.75
2022-11-18T06:37:25.795Z,944.75
2022-11-18T06:38:25.017Z,944.76
2022-11-18T06:39:28.395Z,944.76
2022-11-18T06:40:24.929Z,944.78
2022-11-18T06:41:25.105Z,944.79
2022-11-18T06:42:25.148Z,944.81
2022-11-18T06:43:27.509Z,944.84
2022-11-18T06:44:25.154Z,944.83
2022-11-18T06:45:26.445Z,944.81
2022-11-18T06:46:24.866Z,944.82
2022-11-18T06:47:26.176Z,944.83
2022-11-18T06:48:24.901Z,944.83
2022-11-18T06:49:28.923Z,944.85
2022-11-18T06:50:24.889Z,944.87
2022-11-18T06:51:25.132Z,944.88
2022-11-18T06:52:28.694Z,944.88
2022-11-18T06:53:27.480Z,944.90
2022-11-18T06:54:26.069Z,944.92
2022-11-18T06:55:26.310Z,944.94
2022-11-18T06:56:24.826Z,944.93
2022-11-18T06:57:25.843Z,944.96
2022-11-18T06:58:24.725Z,944.96
2022-11-18T06:59:28.935Z,944.97
2022-11-18T07:00:24.836Z,944.99
2022-11-18T07:01:25.491Z,944.98
2022-11-18T07:02:24.706Z,945.00
2022-11-18T07:03:28.443Z,945.07
2022-11-18T07:04:24.687Z,945.06
2022-11-18T07:05:26.517Z,945.07
2022-11-18T07:06:24.877Z,945.15
2022-11-18T07:07:27.070Z,945.07
2022-11-18T07:08:24.655Z,945.11
2022-11-18T07:09:26.564Z,945.13
2022-11-18T07:10:24.513Z,945.14
2022-11-18T07:11:29.081Z,945.18
2022-11-18T07:12:25.213Z,945.17
2022-11-18T07:13:25.566Z,945.20
2022-11-18T07:14:24.962Z,945.21
2022-11-18T07:15:25.436Z,945.23
2022-11-18T07:16:24.435Z,945.21
2022-11-18T07:17:25.184Z,945.28
2022-11-18T07:18:24.623Z,945.24
2022-11-18T07:19:25.876Z,945.25
2022-11-18T07:20:24.426Z,945.30
2022-11-18T07:21:26.051Z,945.36
2022-11-18T07:22:24.376Z,945.34
2022-11-18T07:23:24.911Z,945.38
2022-11-18T07:24:24.514Z,945.37
2022-11-18T07:25:25.014Z,945.42
2022-11-18T07:26:24.352Z,945.40
2022-11-18T07:27:25.389Z,945.42
2022-11-18T07:28:25.227Z,945.43
2022-11-18T07:29:25.944Z,945.47
2022-11-18T07:30:25.030Z,945.50
2022-11-18T07:31:24.963Z,945.54
2022-11-18T07:32:24.564Z,945.59
2022-11-18T07:33:25.096Z,945.58
2022-11-18T07:34:24.261Z,945.64
2022-11-18T07:35:25.063Z,945.67
2022-11-18T07:36:24.236Z,945.68
2022-11-18T07:37:28.429Z,945.72
2022-11-18T07:38:25.160Z,945.74
2022-11-18T07:39:24.842Z,945.74
2022-11-18T07:40:24.094Z,945.79
2022-11-18T07:41:30.079Z,945.79
2022-11-18T07:42:30.123Z,945.83
2022-11-18T07:43:26.388Z,945.83
2022-11-18T07:44:24.259Z,945.85
2022-11-18T07:45:28.266Z,945.90
2022-11-18T07:46:24.066Z,945.90
2022-11-18T07:47:25.281Z,945.87
2022-11-18T07:48:24.977Z,945.87
2022-11-18T07:49:25.857Z,945.93
2022-11-18T07:50:24.951Z,945.97
2022-11-18T07:51:25.352Z,945.96
2022-11-18T07:52:24.008Z,945.97
2022-11-18T07:53:27.137Z,946.03
2022-11-18T07:54:24.703Z,946.00
2022-11-18T07:55:29.418Z,946.04
2022-11-18T07:56:24.915Z,946.08
2022-11-18T07:57:25.262Z,946.06
2022-11-18T07:58:23.943Z,946.12
2022-11-18T07:59:25.033Z,946.07
2022-11-18T08:00:24.474Z,946.19
2022-11-18T08:01:25.254Z,946.20
2022-11-18T08:02:23.901Z,946.16
2022-11-18T08:03:26.421Z,946.16
2022-11-18T08:04:23.930Z,946.17
2022-11-18T08:05:25.171Z,946.23
2022-11-18T08:06:23.967Z,946.20
2022-11-18T08:07:25.599Z,946.25
2022-11-18T08:08:23.985Z,946.27
2022-11-18T08:09:26.618Z,946.28
2022-11-18T08:10:23.673Z,946.27
2022-11-18T08:11:25.130Z,946.26
2022-11-18T08:12:23.860Z,946.27
2022-11-18T08:13:27.516Z,946.28
2022-11-18T08:14:24.169Z,946.25
2022-11-18T08:15:25.155Z,946.26
2022-11-18T08:16:23.574Z,946.22
2022-11-18T08:17:25.687Z,946.23
2022-11-18T08:18:23.671Z,946.26
2022-11-18T08:19:26.001Z,946.25
2022-11-18T08:20:23.576Z,946.27
2022-11-18T08:21:25.498Z,946.26
2022-11-18T08:22:23.506Z,946.17
2022-11-18T08:23:31.207Z,946.22
2022-11-18T08:24:24.668Z,946.20
2022-11-18T08:25:25.282Z,946.21
2022-11-18T08:26:23.499Z,946.23
2022-11-18T08:27:26.785Z,946.26
2022-11-18T08:28:23.437Z,946.26
2022-11-18T08:29:28.760Z,946.26
2022-11-18T08:30:23.549Z,946.22
2022-11-18T08:31:24.623Z,946.21
2022-11-18T08:32:23.426Z,946.23
2022-11-18T08:33:26.767Z,946.25
2022-11-18T08:34:23.315Z,946.23
2022-11-18T08:35:25.334Z,946.20
2022-11-18T08:36:23.513Z,946.18
2022-11-18T08:37:25.525Z,946.25
2022-11-18T08:38:23.387Z,946.26
2022-11-18T08:39:25.096Z,946.26
2022-11-18T08:40:23.264Z,946.25
2022-11-18T08:41:26.132Z,946.23
2022-11-18T08:42:24.552Z,946.27
2022-11-18T08:43:24.557Z,946.31
2022-11-18T08:44:23.451Z,946.25
2022-11-18T08:45:26.336Z,946.25
2022-11-18T08:46:23.280Z,946.27
2022-11-18T08:47:24.912Z,946.28
2022-11-18T08:48:23.204Z,946.30
2022-11-18T08:49:28.236Z,946.30
2022-11-18T08:50:24.175Z,946.29
2022-11-18T08:51:26.006Z,946.31
2022-11-18T08:52:23.827Z,946.32
2022-11-18T08:53:24.542Z,946.29
2022-11-18T08:54:23.367Z,946.32
2022-11-18T08:55:25.174Z,946.33
2022-11-18T08:56:23.278Z,946.36
2022-11-18T08:57:23.035Z,946.34
2022-11-18T08:58:22.970Z,946.33
2022-11-18T08:59:23.040Z,946.38
2022-11-18T09:00:23.174Z,946.42
2022-11-18T09:01:23.046Z,946.42
2022-11-18T09:02:22.960Z,946.40
2022-11-18T09:03:22.993Z,946.47
2022-11-18T09:04:22.966Z,946.44
2022-11-18T09:05:22.913Z,946.43
2022-11-18T09:06:23.030Z,946.47
2022-11-18T09:07:22.925Z,946.46
2022-11-18T09:08:22.862Z,946.45
2022-11-18T09:09:23.141Z,946.42
2022-11-18T09:10:22.849Z,946.50
2022-11-18T09:11:22.817Z,946.47
2022-11-18T09:12:23.859Z,946.42
2022-11-18T09:13:49.781Z,946.49
2022-11-18T09:15:26.332Z,946.50
2022-11-18T09:16:27.678Z,946.50
2022-11-18T09:17:26.492Z,946.53
2022-11-18T09:18:22.695Z,946.52
2022-11-18T09:20:23.809Z,946.51
2022-11-18T09:21:22.718Z,946.48
2022-11-18T09:22:22.694Z,946.53
2022-11-18T09:23:22.816Z,946.49
2022-11-18T09:24:22.644Z,946.44
2022-11-18T09:25:22.623Z,946.47
2022-11-18T09:26:22.637Z,946.49
2022-11-18T09:27:22.582Z,946.49
2022-11-18T09:28:23.323Z,946.51
2022-11-18T09:29:22.830Z,946.53
2022-11-18T09:30:22.587Z,946.52
2022-11-18T09:31:22.591Z,946.57
2022-11-18T09:32:22.533Z,946.49
2022-11-18T09:33:22.500Z,946.55
2022-11-18T09:34:22.664Z,946.57
2022-11-18T09:35:22.756Z,946.54
2022-11-18T09:36:22.443Z,946.61
2022-11-18T09:37:22.465Z,946.62
2022-11-18T09:38:22.444Z,946.61
2022-11-18T09:39:22.406Z,946.60
2022-11-18T09:40:23.134Z,946.61
2022-11-18T09:41:22.589Z,946.62
2022-11-18T09:42:22.714Z,946.66
2022-11-18T09:43:23.006Z,946.68
2022-11-18T09:44:23.213Z,946.67
2022-11-18T09:45:24.683Z,946.71
2022-11-18T09:46:22.323Z,946.68
2022-11-18T09:47:22.443Z,946.69
2022-11-18T09:48:22.272Z,946.70
2022-11-18T09:49:22.355Z,946.75
2022-11-18T09:51:24.981Z,946.73
2022-11-18T09:52:22.252Z,946.76
2022-11-18T09:53:22.341Z,946.77
2022-11-18T09:54:22.233Z,946.78
2022-11-18T09:55:22.268Z,946.76
2022-11-18T09:56:23.214Z,946.79
2022-11-18T09:57:22.211Z,946.81
2022-11-18T09:58:22.205Z,946.78
2022-11-18T09:59:22.335Z,946.80
2022-11-18T10:00:22.100Z,946.81
2022-11-18T10:01:22.136Z,946.82
2022-11-18T10:02:22.144Z,946.85
2022-11-18T10:03:22.149Z,946.83
2022-11-18T10:04:22.089Z,946.82
2022-11-18T10:05:22.223Z,946.80
2022-11-18T10:06:23.682Z,946.84
2022-11-18T10:07:22.156Z,946.83
2022-11-18T10:08:22.032Z,946.84
2022-11-18T10:09:22.037Z,946.84
2022-11-18T10:10:21.967Z,946.83
2022-11-18T10:11:22.043Z,946.79
2022-11-18T10:12:21.923Z,946.86
2022-11-18T10:13:21.934Z,946.83
2022-11-18T10:14:22.039Z,946.83
2022-11-18T10:15:22.785Z,946.84
2022-11-18T10:16:22.832Z,946.88
2022-11-18T10:17:22.043Z,946.83
2022-11-18T10:18:45.014Z,946.84
2022-11-18T10:19:27.805Z,946.81
2022-11-18T10:20:21.817Z,946.84
2022-11-18T10:21:21.836Z,946.87
2022-11-18T10:22:24.533Z,946.86
2022-11-18T10:23:21.907Z,946.91
2022-11-18T10:24:21.752Z,946.91
2022-11-18T10:25:21.876Z,946.90
2022-11-18T10:26:21.733Z,946.90
2022-11-18T10:27:21.756Z,946.91
2022-11-18T10:28:21.725Z,946.91
2022-11-18T10:29:21.839Z,946.92
2022-11-18T10:30:21.687Z,946.94
2022-11-18T10:31:21.763Z,946.93
2022-11-18T10:32:21.666Z,946.95
2022-11-18T10:33:21.696Z,946.89
2022-11-18T10:34:21.637Z,946.91
2022-11-18T10:35:21.747Z,946.91
2022-11-18T10:36:21.625Z,946.94
2022-11-18T10:37:31.239Z,946.96
2022-11-18T10:38:22.579Z,946.96
2022-11-18T10:39:21.598Z,946.94
2022-11-18T10:40:21.545Z,946.98
2022-11-18T10:41:21.694Z,946.98
2022-11-18T10:42:21.535Z,947.03
2022-11-18T10:43:21.568Z,947.01
2022-11-18T10:44:21.708Z,947.05
2022-11-18T10:45:22.243Z,947.08
2022-11-18T10:46:22.215Z,947.10
2022-11-18T10:47:21.594Z,947.08
2022-11-18T10:48:21.455Z,947.07
2022-11-18T10:49:21.506Z,947.09
2022-11-18T10:50:21.419Z,947.07
2022-11-18T10:51:21.420Z,947.03
2022-11-18T10:52:21.405Z,946.96
2022-11-18T10:53:21.485Z,946.99
2022-11-18T10:54:21.403Z,946.96
2022-11-18T10:55:21.413Z,946.98
2022-11-18T10:56:21.344Z,946.96
2022-11-18T10:57:21.335Z,946.96
2022-11-18T10:58:21.354Z,946.99
2022-11-18T10:59:21.443Z,946.99
2022-11-18T11:00:23.208Z,946.97
2022-11-18T11:01:22.048Z,947.02
2022-11-18T11:02:21.290Z,947.05
2022-11-18T11:03:21.290Z,947.00
2022-11-18T11:04:21.203Z,946.98
2022-11-18T11:05:21.341Z,947.00
2022-11-18T11:06:21.256Z,947.07
2022-11-18T11:07:21.429Z,947.11
2022-11-18T11:08:36.210Z,947.09
2022-11-18T11:09:22.237Z,947.16
2022-11-18T11:10:21.338Z,947.12
2022-11-18T11:11:21.260Z,947.12
2022-11-18T11:12:21.087Z,947.09
2022-11-18T11:13:21.164Z,947.14
2022-11-18T11:14:21.626Z,947.14
2022-11-18T11:15:21.290Z,947.13
2022-11-18T11:16:26.011Z,947.16
2022-11-18T11:17:22.209Z,947.18
2022-11-18T11:18:20.986Z,947.12
2022-11-18T11:19:21.078Z,947.06
2022-11-18T11:20:21.007Z,947.09
2022-11-18T11:21:21.087Z,947.13
2022-11-18T11:22:21.008Z,947.11
2022-11-18T11:23:23.848Z,947.13
2022-11-18T11:24:20.996Z,947.16
2022-11-18T11:25:21.207Z,947.17
2022-11-18T11:28:22.010Z,947.16
2022-11-18T11:29:20.950Z,947.17
2022-11-18T11:30:21.663Z,947.10
2022-11-18T11:31:20.881Z,947.15
2022-11-18T11:32:20.792Z,947.11
2022-11-18T11:33:20.895Z,947.09
2022-11-18T11:34:21.083Z,947.13
2022-11-18T11:35:21.804Z,947.09
2022-11-18T11:36:20.767Z,947.10
2022-11-18T11:37:20.810Z,947.05
2022-11-18T11:38:20.729Z,947.04
2022-11-18T11:39:21.597Z,947.02
2022-11-18T11:40:21.278Z,947.04
2022-11-18T11:41:20.696Z,947.06
2022-11-18T11:42:20.691Z,947.04
2022-11-18T11:43:20.746Z,947.06
2022-11-18T11:44:20.644Z,947.11
2022-11-18T11:45:20.657Z,947.07
2022-11-18T11:46:20.821Z,947.12
2022-11-18T11:47:20.664Z,947.14
2022-11-18T11:48:20.566Z,947.12
2022-11-18T11:49:20.977Z,947.13
2022-11-18T11:50:21.061Z,947.09
2022-11-18T11:51:20.557Z,947.14
2022-11-18T11:52:20.734Z,947.14
2022-11-18T11:53:21.292Z,947.13
2022-11-18T11:54:20.506Z,947.13
2022-11-18T11:55:20.542Z,947.16
2022-11-18T11:56:22.948Z,947.14
2022-11-18T11:57:20.499Z,947.13
2022-11-18T11:58:21.236Z,947.12
2022-11-18T11:59:20.817Z,947.15
2022-11-18T12:00:20.579Z,947.16
2022-11-18T12:01:20.485Z,947.16
2022-11-18T12:02:20.693Z,947.14
2022-11-18T12:03:20.516Z,947.15
2022-11-18T12:04:20.534Z,947.15
2022-11-18T12:05:20.806Z,947.17
2022-11-18T12:06:20.396Z,947.18
2022-11-18T12:07:20.576Z,947.18
2022-11-18T12:08:20.283Z,947.16
2022-11-18T12:09:20.461Z,947.19
2022-11-18T12:10:20.423Z,947.19
2022-11-18T12:11:20.295Z,947.21
2022-11-18T12:12:20.441Z,947.22
2022-11-18T12:13:20.682Z,947.20
2022-11-18T12:14:20.339Z,947.21
2022-11-18T12:15:20.263Z,947.24
2022-11-18T12:16:20.321Z,947.30
2022-11-18T12:17:20.295Z,947.28
2022-11-18T12:18:20.161Z,947.23
2022-11-18T12:19:20.579Z,947.32
2022-11-18T12:20:20.172Z,947.29
2022-11-18T12:21:20.146Z,947.28
2022-11-18T12:22:20.335Z,947.30
2022-11-18T12:23:20.117Z,947.38
2022-11-18T12:24:20.085Z,947.37
2022-11-18T12:25:20.116Z,947.37
2022-11-18T12:26:20.167Z,947.37
2022-11-18T12:27:20.058Z,947.34
2022-11-18T12:28:20.491Z,947.39
2022-11-18T12:29:20.333Z,947.41
2022-11-18T12:30:25.987Z,947.38
2022-11-18T12:31:20.029Z,947.39
2022-11-18T12:32:20.036Z,947.39
2022-11-18T12:33:19.973Z,947.42